Time;durP1;ratioP1;P1;durP2;ratioP2;P2;SDS_P1;SDS_P2;PMS_P1;PMS_P2;Temp;Humidity;BMP_temperature;BMP_pressure;BME280_temperature;BME280_humidity;BME280_pressure;Samples;Min_cycle;Max_cycle;Signal;HPM_P1;HPM_P2
2023/03/27 00:02:10;;;;;;;;;;;;;;;;;;5064714;22;19959;-58
2023/03/27 00:04:36;;;;;;;;;;;;;;;;;;5058993;28;20380;-59
2023/03/27 00:07:02;;;;;;;;;;;;;;;;;;5061838;28;19905;-59
2023/03/27 00:09:28;;;;;;;;;;;;;;;;;;5053575;28;20327;-58
2023/03/27 00:11:54;;;;;;;;;;;;;;;;;;5053673;28;19947;-58
2023/03/27 00:14:20;;;;;;;;;;;;;;;;;;5052882;28;19908;-60
2023/03/27 00:16:46;;;;;;;;;;;;;;;;;;5054952;28;19950;-56
2023/03/27 00:19:12;;;;;;;;;;;;;;;;;;5053986;28;20346;-55
2023/03/27 00:21:39;;;;;;;;;;;;;;;;;;5052835;28;19953;-56
2023/03/27 00:24:05;;;;;;;;;;;;;;;;;;5053574;28;19932;-58
2023/03/27 00:26:31;;;;;;;;;;;;;;;;;;5054339;28;19905;-58
2023/03/27 00:28:57;;;;;;;;;;;;;;;;;;5054230;28;19915;-59
2023/03/27 00:31:23;;;;;;;;;;;;;;;;;;5053971;28;19905;-56
2023/03/27 00:33:49;;;;;;;;;;;;;;;;;;5053351;28;20054;-59
2023/03/27 00:36:15;;;;;;;;;;;;;;;;;;5054029;28;19904;-58
2023/03/27 00:38:42;;;;;;;;;;;;;;;;;;5054001;28;19911;-58
2023/03/27 00:41:09;;;;;;;;;;;;;;;;;;5052676;28;20369;-58
2023/03/27 00:43:34;;;;;;;;;;;;;;;;;;5053333;28;19904;-60
2023/03/27 00:46:00;;;;;;;;;;;;;;;;;;5053873;28;20008;-58
2023/03/27 00:48:26;;;;;;;;;;;;;;;;;;5053030;28;19908;-58
2023/03/27 00:50:52;;;;;;;;;;;;;;;;;;5052571;28;19905;-60
2023/03/27 00:53:18;;;;;;;;;;;;;;;;;;5052948;28;19904;-55
2023/03/27 00:55:44;;;;;;;;;;;;;;;;;;5053795;28;19959;-58
2023/03/27 00:58:10;;;;;;;;;;;;;;;;;;5053707;28;19904;-55
2023/03/27 01:00:36;;;;;;;;;;;;;;;;;;5053480;28;19950;-58
2023/03/27 01:03:02;;;;;;;;;;;;;;;;;;5052638;28;20347;-59
2023/03/27 01:05:28;;;;;;;;;;;;;;;;;;5053481;28;19905;-58
2023/03/27 01:07:55;;;;;;;;;;;;;;;;;;5053444;28;19963;-58
2023/03/27 01:10:21;;;;;;;;;;;;;;;;;;5052226;28;20353;-59
2023/03/27 01:12:46;;;;;;;;;;;;;;;;;;5053185;28;19904;-59
2023/03/27 01:15:12;;;;;;;;;;;;;;;;;;5052611;28;19904;-59
2023/03/27 01:17:38;;;;;;;;;;;;;;;;;;5053485;28;20365;-55
2023/03/27 01:20:04;;;;;;;;;;;;;;;;;;5053451;28;19904;-56
2023/03/27 01:22:30;;;;;;;;;;;;;;;;;;5052007;28;19916;-56
2023/03/27 01:24:56;;;;;;;;;;;;;;;;;;5051446;28;20272;-54
2023/03/27 01:27:24;;;;;;;;;;;;;;;;;;5051685;28;19909;-56
2023/03/27 01:29:50;;;;;;;;;;;;;;;;;;5053009;28;19905;-57
2023/03/27 01:32:16;;;;;;;;;;;;;;;;;;5051632;28;19905;-57
2023/03/27 01:34:42;;;;;;;;;;;;;;;;;;5052268;28;20000;-54
2023/03/27 01:37:08;;;;;;;;;;;;;;;;;;5051708;28;19978;-58
2023/03/27 01:39:34;;;;;;;;;;;;;;;;;;5052798;28;19901;-57
2023/03/27 01:42:00;;;;;;;;;;;;;;;;;;5052767;28;19919;-58
2023/03/27 01:44:26;;;;;;;;;;;;;;;;;;5052052;28;20365;-58
2023/03/27 01:46:52;;;;;;;;;;;;;;;;;;5052649;28;19912;-53
2023/03/27 01:49:18;;;;;;;;;;;;;;;;;;5052668;28;19971;-60
2023/03/27 01:51:44;;;;;;;;;;;;;;;;;;5051379;28;20273;-57
2023/03/27 01:54:09;;;;;;;;;;;;;;;;;;5051889;28;19904;-56
2023/03/27 01:56:36;;;;;;;;;;;;;;;;;;5051290;28;19904;-58
2023/03/27 01:59:02;;;;;;;;;;;;;;;;;;5052375;28;19970;-55
2023/03/27 02:01:28;;;;;;;;;;;;;;;;;;5051991;28;19909;-58
2023/03/27 02:03:54;;;;;;;;;;;;;;;;;;5051614;28;19916;-58
2023/03/27 02:06:20;;;;;;;;;;;;;;;;;;5052309;28;19958;-58
2023/03/27 02:08:46;;;;;;;;;;;;;;;;;;5052408;28;19936;-57
2023/03/27 02:11:12;;;;;;;;;;;;;;;;;;5052215;28;19911;-56
2023/03/27 02:13:38;;;;;;;;;;;;;;;;;;5051675;28;19915;-58
2023/03/27 02:16:04;;;;;;;;;;;;;;;;;;5052170;28;19911;-58
2023/03/27 02:18:30;;;;;;;;;;;;;;;;;;5052189;28;19962;-58
2023/03/27 02:20:56;;;;;;;;;;;;;;;;;;5052057;28;19904;-59
2023/03/27 02:23:22;;;;;;;;;;;;;;;;;;5051208;28;20019;-60
2023/03/27 02:25:48;;;;;;;;;;;;;;;;;;5052125;28;19905;-58
2023/03/27 02:28:14;;;;;;;;;;;;;;;;;;5051971;28;19999;-58
2023/03/27 02:30:40;;;;;;;;;;;;;;;;;;5052057;28;20289;-59
2023/03/27 02:33:07;;;;;;;;;;;;;;;;;;5049998;28;19999;-57
2023/03/27 02:35:34;;;;;;;;;;;;;;;;;;5051929;28;20008;-58
2023/03/27 02:38:00;;;;;;;;;;;;;;;;;;5051951;28;19979;-58
2023/03/27 02:40:26;;;;;;;;;;;;;;;;;;5051829;28;19930;-59
2023/03/27 02:42:53;;;;;;;;;;;;;;;;;;5051779;28;19955;-58
2023/03/27 02:45:19;;;;;;;;;;;;;;;;;;5051109;28;19905;-60
2023/03/27 02:47:44;;;;;;;;;;;;;;;;;;5051792;28;19905;-55
2023/03/27 02:50:10;;;;;;;;;;;;;;;;;;5051815;28;19911;-58
2023/03/27 02:52:36;;;;;;;;;;;;;;;;;;5051764;28;19925;-55
2023/03/27 02:55:05;;;;;;;;;;;;;;;;;;5051069;28;19904;-58
2023/03/27 02:57:31;;;;;;;;;;;;;;;;;;5051552;28;19905;-55
2023/03/27 02:59:57;;;;;;;;;;;;;;;;;;5051571;28;20402;-59
2023/03/27 03:02:23;;;;;;;;;;;;;;;;;;5051444;28;19927;-58
2023/03/27 03:04:49;;;;;;;;;;;;;;;;;;5050749;28;19911;-57
2023/03/27 03:07:15;;;;;;;;;;;;;;;;;;5051536;28;19905;-58
2023/03/27 03:09:41;;;;;;;;;;;;;;;;;;5051683;28;19909;-59
2023/03/27 03:12:07;;;;;;;;;;;;;;;;;;5053808;28;19904;-58
2023/03/27 03:14:33;;;;;;;;;;;;;;;;;;5055372;28;20004;-55
2023/03/27 03:16:59;;;;;;;;;;;;;;;;;;5056332;28;19905;-59
2023/03/27 03:19:25;;;;;;;;;;;;;;;;;;5055854;28;20003;-58
2023/03/27 03:21:51;;;;;;;;;;;;;;;;;;5055507;28;19915;-59
2023/03/27 03:24:17;;;;;;;;;;;;;;;;;;5055140;28;19909;-58
2023/03/27 03:26:44;;;;;;;;;;;;;;;;;;5055813;28;19905;-57
2023/03/27 03:29:09;;;;;;;;;;;;;;;;;;5055493;28;19995;-57
2023/03/27 03:31:41;;;;;;;;;;;;;;;;;;5054265;28;20361;-59
2023/03/27 03:34:08;;;;;;;;;;;;;;;;;;5054655;28;19996;-58
2023/03/27 03:36:33;;;;;;;;;;;;;;;;;;5055200;28;19962;-59
2023/03/27 03:38:59;;;;;;;;;;;;;;;;;;5055360;28;19905;-58
2023/03/27 03:41:25;;;;;;;;;;;;;;;;;;5055134;28;19909;-57
2023/03/27 03:43:51;;;;;;;;;;;;;;;;;;5054293;28;19915;-56
2023/03/27 03:46:17;;;;;;;;;;;;;;;;;;5055126;28;20361;-56
2023/03/27 03:48:43;;;;;;;;;;;;;;;;;;5053765;28;19911;-59
2023/03/27 03:51:09;;;;;;;;;;;;;;;;;;5054790;28;19904;-60
2023/03/27 03:53:35;;;;;;;;;;;;;;;;;;5053924;28;19901;-57
2023/03/27 03:56:01;;;;;;;;;;;;;;;;;;5053466;28;20343;-58
2023/03/27 03:58:27;;;;;;;;;;;;;;;;;;5053600;28;19909;-59
2023/03/27 04:00:53;;;;;;;;;;;;;;;;;;5054722;28;19905;-56
2023/03/27 04:03:19;;;;;;;;;;;;;;;;;;5053786;28;19916;-58
2023/03/27 04:05:45;;;;;;;;;;;;;;;;;;5053408;28;20279;-57
2023/03/27 04:08:11;;;;;;;;;;;;;;;;;;5054744;28;19920;-57
2023/03/27 04:10:37;;;;;;;;;;;;;;;;;;5054549;28;19970;-56
2023/03/27 04:13:04;;;;;;;;;;;;;;;;;;5053579;28;19912;-58
2023/03/27 04:15:29;;;;;;;;;;;;;;;;;;5054434;28;19966;-56
2023/03/27 04:17:56;;;;;;;;;;;;;;;;;;5054460;28;19999;-57
2023/03/27 04:20:25;;;;;;;;;;;;;;;;;;5053008;28;20434;-56
2023/03/27 04:22:53;;;;;;;;;;;;;;;;;;5052786;28;20051;-57
2023/03/27 04:25:18;;;;;;;;;;;;;;;;;;5052185;28;19905;-55
2023/03/27 04:27:44;;;;;;;;;;;;;;;;;;5052895;28;19905;-58
2023/03/27 04:30:14;;;;;;;;;;;;;;;;;;5052506;28;20375;-58
2023/03/27 04:32:40;;;;;;;;;;;;;;;;;;5053874;28;19912;-58
2023/03/27 04:35:06;;;;;;;;;;;;;;;;;;5052215;28;19905;-56
2023/03/27 04:37:32;;;;;;;;;;;;;;;;;;5053789;28;19966;-54
2023/03/27 04:39:59;;;;;;;;;;;;;;;;;;5053870;28;20004;-58
2023/03/27 04:42:25;;;;;;;;;;;;;;;;;;5053595;28;19947;-55
2023/03/27 04:44:51;;;;;;;;;;;;;;;;;;5052925;28;19909;-59
2023/03/27 04:47:19;;;;;;;;;;;;;;;;;;5052375;28;19959;-58
2023/03/27 04:49:49;;;;;;;;;;;;;;;;;;5053738;28;19904;-58
2023/03/27 04:52:15;;;;;;;;;;;;;;;;;;5053524;28;19959;-58
2023/03/27 04:54:41;;;;;;;;;;;;;;;;;;5052931;28;19909;-61
2023/03/27 04:57:08;;;;;;;;;;;;;;;;;;5053557;28;19908;-60
2023/03/27 04:59:34;;;;;;;;;;;;;;;;;;5053404;28;20091;-56
2023/03/27 05:02:00;;;;;;;;;;;;;;;;;;5053044;28;19987;-58
2023/03/27 05:04:26;;;;;;;;;;;;;;;;;;5051148;28;19904;-58
2023/03/27 05:06:52;;;;;;;;;;;;;;;;;;5053524;28;19905;-54
2023/03/27 05:09:18;;;;;;;;;;;;;;;;;;5053492;28;19904;-60
2023/03/27 05:11:48;;;;;;;;;;;;;;;;;;5053038;28;19905;-55
2023/03/27 05:14:14;;;;;;;;;;;;;;;;;;5051171;28;19911;-58
2023/03/27 05:16:41;;;;;;;;;;;;;;;;;;5052014;28;19944;-58
2023/03/27 05:19:07;;;;;;;;;;;;;;;;;;5053083;28;19926;-59
2023/03/27 05:21:33;;;;;;;;;;;;;;;;;;5053112;28;20361;-57
2023/03/27 05:23:59;;;;;;;;;;;;;;;;;;5052112;28;19912;-57
2023/03/27 05:26:25;;;;;;;;;;;;;;;;;;5052788;28;19974;-58
2023/03/27 05:28:53;;;;;;;;;;;;;;;;;;5052401;28;19905;-58
2023/03/27 05:31:19;;;;;;;;;;;;;;;;;;5051360;28;19904;-55
2023/03/27 05:33:44;;;;;;;;;;;;;;;;;;5050457;28;19904;-53
2023/03/27 05:36:10;;;;;;;;;;;;;;;;;;5052941;28;19912;-56
2023/03/27 05:38:36;;;;;;;;;;;;;;;;;;5052347;28;19948;-52
2023/03/27 05:41:03;;;;;;;;;;;;;;;;;;5051869;28;19908;-55
2023/03/27 05:43:29;;;;;;;;;;;;;;;;;;5052909;28;19908;-51
2023/03/27 05:45:55;;;;;;;;;;;;;;;;;;5057007;28;19935;-56
2023/03/27 05:48:21;;;;;;;;;;;;;;;;;;5057352;28;20344;-56
2023/03/27 05:50:46;;;;;;;;;;;;;;;;;;5061826;28;19905;-56
2023/03/27 05:53:12;;;;;;;;;;;;;;;;;;5053927;28;20383;-49
2023/03/27 05:55:38;;;;;;;;;;;;;;;;;;5054700;28;19923;-57
2023/03/27 05:58:09;;;;;;;;;;;;;;;;;;5051789;28;19904;-52
2023/03/27 06:00:35;;;;;;;;;;;;;;;;;;5051920;28;19912;-57
2023/03/27 06:03:01;;;;;;;;;;;;;;;;;;5077320;22;19936;-63
2023/03/27 06:05:28;;;;;;;;;;;;;;;;;;5071016;28;19998;-65
2023/03/27 06:07:57;;;;;;;;;;;;;;;;;;5065228;28;19991;-70
2023/03/27 06:10:23;;;;;;;;;;;;;;;;;;5070418;28;19927;-69
2023/03/27 06:12:49;;;;;;;;;;;;;;;;;;5070784;28;20364;-68
2023/03/27 06:15:15;;;;;;;;;;;;;;;;;;5064267;28;19905;-68
2023/03/27 06:17:41;;;;;;;;;;;;;;;;;;5046256;28;19952;-69
2023/03/27 06:20:14;;;;;;;;;;;;;;;;;;5050573;28;20011;-68
2023/03/27 06:22:40;;;;;;;;;;;;;;;;;;5050428;28;19991;-66
2023/03/27 06:25:05;;;;;;;;;;;;;;;;;;5051150;28;20360;-65
2023/03/27 06:27:31;;;;;;;;;;;;;;;;;;5050466;28;19905;-67
2023/03/27 06:29:57;;;;;;;;;;;;;;;;;;5050720;28;20005;-68
2023/03/27 06:32:23;;;;;;;;;;;;;;;;;;5032882;28;19943;-69
2023/03/27 06:34:49;;;;;;;;;;;;;;;;;;5031799;28;19916;-68
2023/03/27 06:37:15;;;;;;;;;;;;;;;;;;5050243;28;19905;-66
2023/03/27 06:39:42;;;;;;;;;;;;;;;;;;5050314;28;19904;-67
2023/03/27 06:42:09;;;;;;;;;;;;;;;;;;5050397;28;20319;-65
2023/03/27 06:44:35;;;;;;;;;;;;;;;;;;5049224;28;20293;-69
2023/03/27 06:47:01;;;;;;;;;;;;;;;;;;5032239;28;19905;-66
2023/03/27 06:49:27;;;;;;;;;;;;;;;;;;5050616;28;19904;-66
2023/03/27 06:51:52;;;;;;;;;;;;;;;;;;5051010;28;20291;-68
2023/03/27 06:54:19;;;;;;;;;;;;;;;;;;5049551;28;19909;-67
2023/03/27 06:56:45;;;;;;;;;;;;;;;;;;5032826;28;19904;-68
2023/03/27 06:59:11;;;;;;;;;;;;;;;;;;5050725;28;19911;-66
2023/03/27 07:01:37;;;;;;;;;;;;;;;;;;5050458;28;19938;-68
2023/03/27 07:04:03;;;;;;;;;;;;;;;;;;5049274;28;20388;-64
2023/03/27 07:06:29;;;;;;;;;;;;;;;;;;5050100;28;19905;-62
2023/03/27 07:08:55;;;;;;;;;;;;;;;;;;5050078;28;19905;-62
2023/03/27 07:11:20;;;;;;;;;;;;;;;;;;5050152;28;20515;-63
2023/03/27 07:13:46;;;;;;;;;;;;;;;;;;5049248;28;19916;-63
2023/03/27 07:16:14;;;;;;;;;;;;;;;;;;5049883;28;19924;-62
2023/03/27 07:18:40;;;;;;;;;;;;;;;;;;5049809;28;19905;-64
2023/03/27 07:21:07;;;;;;;;;;;;;;;;;;5050012;28;19904;-62
2023/03/27 07:23:33;;;;;;;;;;;;;;;;;;5031477;28;20315;-62
2023/03/27 07:25:58;;;;;;;;;;;;;;;;;;5050007;28;19904;-62
2023/03/27 07:28:25;;;;;;;;;;;;;;;;;;5049962;28;19967;-64
2023/03/27 07:30:51;;;;;;;;;;;;;;;;;;5049946;28;20450;-64
2023/03/27 07:33:16;;;;;;;;;;;;;;;;;;5049086;28;19913;-64
2023/03/27 07:35:42;;;;;;;;;;;;;;;;;;5050200;28;19912;-62
2023/03/27 07:38:09;;;;;;;;;;;;;;;;;;5049555;28;20283;-61
2023/03/27 07:40:35;;;;;;;;;;;;;;;;;;5049906;28;19904;-62
2023/03/27 07:43:05;;;;;;;;;;;;;;;;;;5062667;28;19912;-60
2023/03/27 07:45:30;;;;;;;;;;;;;;;;;;5069482;28;19904;-63
2023/03/27 07:47:56;;;;;;;;;;;;;;;;;;5069564;28;19908;-63
2023/03/27 07:50:22;;;;;;;;;;;;;;;;;;5069852;28;19912;-63
2023/03/27 07:52:48;;;;;;;;;;;;;;;;;;5069337;28;19974;-63
2023/03/27 07:55:16;;;;;;;;;;;;;;;;;;5068865;28;19935;-62
2023/03/27 07:57:42;;;;;;;;;;;;;;;;;;5059630;28;19909;-63
2023/03/27 08:00:11;;;;;;;;;;;;;;;;;;5052925;28;19996;-60
2023/03/27 08:02:37;;;;;;;;;;;;;;;;;;5052706;28;19924;-63
2023/03/27 08:05:04;;;;;;;;;;;;;;;;;;5052258;28;19950;-63
2023/03/27 08:07:31;;;;;;;;;;;;;;;;;;5053087;28;19905;-64
2023/03/27 08:09:56;;;;;;;;;;;;;;;;;;5052849;28;19905;-64
2023/03/27 08:12:23;;;;;;;;;;;;;;;;;;5052990;28;19920;-65
2023/03/27 08:14:49;;;;;;;;;;;;;;;;;;5052116;28;20268;-65
2023/03/27 08:17:14;;;;;;;;;;;;;;;;;;5052721;28;19909;-66
2023/03/27 08:19:40;;;;;;;;;;;;;;;;;;5052846;28;19904;-63
2023/03/27 08:22:06;;;;;;;;;;;;;;;;;;5050295;28;19932;-66
2023/03/27 08:24:32;;;;;;;;;;;;;;;;;;5034036;28;19904;-66
2023/03/27 08:26:58;;;;;;;;;;;;;;;;;;5052694;28;19904;-66
2023/03/27 08:29:24;;;;;;;;;;;;;;;;;;5052784;28;19911;-65
2023/03/27 08:31:50;;;;;;;;;;;;;;;;;;5052786;28;19904;-66
2023/03/27 08:34:16;;;;;;;;;;;;;;;;;;5052110;28;20344;-65
2023/03/27 08:36:42;;;;;;;;;;;;;;;;;;5047111;28;19948;-66
2023/03/27 08:39:08;;;;;;;;;;;;;;;;;;5052663;28;19924;-67
2023/03/27 08:41:37;;;;;;;;;;;;;;;;;;5052208;28;19981;-65
2023/03/27 08:44:05;;;;;;;;;;;;;;;;;;5052148;28;19904;-64
2023/03/27 08:46:31;;;;;;;;;;;;;;;;;;5050808;28;19904;-66
2023/03/27 08:48:57;;;;;;;;;;;;;;;;;;5051929;28;20439;-64
2023/03/27 08:51:23;;;;;;;;;;;;;;;;;;5052198;28;19912;-64
2023/03/27 08:53:48;;;;;;;;;;;;;;;;;;5051781;28;19905;-66
2023/03/27 08:56:14;;;;;;;;;;;;;;;;;;5052689;28;19909;-65
2023/03/27 08:58:40;;;;;;;;;;;;;;;;;;5052979;28;19908;-63
2023/03/27 09:01:07;;;;;;;;;;;;;;;;;;5052668;28;19909;-64
2023/03/27 09:03:34;;;;;;;;;;;;;;;;;;5051665;28;19920;-65
2023/03/27 09:06:00;;;;;;;;;;;;;;;;;;5035005;28;19905;-66
2023/03/27 09:08:26;;;;;;;;;;;;;;;;;;5051885;28;19905;-66
2023/03/27 09:10:52;;;;;;;;;;;;;;;;;;5052651;28;19912;-64
2023/03/27 09:13:18;;;;;;;;;;;;;;;;;;5051516;28;19909;-65
2023/03/27 09:15:44;;;;;;;;;;;;;;;;;;5052305;28;19901;-64
2023/03/27 09:18:10;;;;;;;;;;;;;;;;;;5052026;28;19905;-63
2023/03/27 09:20:36;;;;;;;;;;;;;;;;;;5051199;28;19943;-64
2023/03/27 09:23:02;;;;;;;;;;;;;;;;;;5050084;28;19909;-63
2023/03/27 09:25:27;;;;;;;;;;;;;;;;;;5051883;28;19955;-65
2023/03/27 09:27:53;;;;;;;;;;;;;;;;;;5051618;28;19999;-63
2023/03/27 09:30:19;;;;;;;;;;;;;;;;;;5052037;28;19935;-64
2023/03/27 09:32:45;;;;;;;;;;;;;;;;;;5051907;28;20541;-61
2023/03/27 09:35:12;;;;;;;;;;;;;;;;;;5050812;28;19930;-64
2023/03/27 09:37:38;;;;;;;;;;;;;;;;;;5051645;28;19909;-64
2023/03/27 09:40:07;;;;;;;;;;;;;;;;;;5051541;28;19904;-61
2023/03/27 09:42:33;;;;;;;;;;;;;;;;;;5033313;28;20348;-62
2023/03/27 09:44:58;;;;;;;;;;;;;;;;;;5050841;28;19911;-65
2023/03/27 09:47:24;;;;;;;;;;;;;;;;;;5049975;28;19905;-64
2023/03/27 09:49:50;;;;;;;;;;;;;;;;;;5051363;28;20356;-64
2023/03/27 09:52:16;;;;;;;;;;;;;;;;;;5051356;28;19904;-64
2023/03/27 09:54:42;;;;;;;;;;;;;;;;;;5050600;28;19908;-65
2023/03/27 09:57:09;;;;;;;;;;;;;;;;;;5051131;28;20944;-65
2023/03/27 09:59:36;;;;;;;;;;;;;;;;;;5050896;28;20432;-64
2023/03/27 10:02:02;;;;;;;;;;;;;;;;;;5033131;28;19917;-64
2023/03/27 10:04:28;;;;;;;;;;;;;;;;;;5050054;28;19919;-64
2023/03/27 10:06:54;;;;;;;;;;;;;;;;;;5050953;28;19908;-63
2023/03/27 10:09:21;;;;;;;;;;;;;;;;;;5049746;28;20391;-63
2023/03/27 10:11:48;;;;;;;;;;;;;;;;;;5050741;28;19992;-63
2023/03/27 10:14:14;;;;;;;;;;;;;;;;;;5050613;28;20276;-63
2023/03/27 10:16:40;;;;;;;;;;;;;;;;;;5050588;28;20296;-63
2023/03/27 10:19:06;;;;;;;;;;;;;;;;;;5032841;28;19911;-61
2023/03/27 10:21:32;;;;;;;;;;;;;;;;;;5050643;28;20312;-62
2023/03/27 10:23:58;;;;;;;;;;;;;;;;;;5050240;28;19909;-62
2023/03/27 10:26:23;;;;;;;;;;;;;;;;;;5068805;28;19908;-62
2023/03/27 10:28:50;;;;;;;;;;;;;;;;;;5049657;28;19916;-62
2023/03/27 10:31:16;;;;;;;;;;;;;;;;;;5050965;28;20031;-62
2023/03/27 10:33:42;;;;;;;;;;;;;;;;;;5049667;28;19952;-60
2023/03/27 10:36:08;;;;;;;;;;;;;;;;;;5050333;28;20331;-63
2023/03/27 10:38:34;;;;;;;;;;;;;;;;;;5050348;28;19905;-62
2023/03/27 10:41:00;;;;;;;;;;;;;;;;;;5041739;28;19909;-63
2023/03/27 10:43:26;;;;;;;;;;;;;;;;;;5057957;28;20325;-63
2023/03/27 10:45:52;;;;;;;;;;;;;;;;;;5051021;28;19909;-61
2023/03/27 10:48:18;;;;;;;;;;;;;;;;;;5050665;28;19905;-62
2023/03/27 10:50:44;;;;;;;;;;;;;;;;;;5053040;28;19904;-63
2023/03/27 10:53:10;;;;;;;;;;;;;;;;;;4704935;28;9999748;-62
2023/03/27 10:55:36;;;;;;;;;;;;;;;;;;5046463;28;19936;-65
2023/03/27 10:58:02;;;;;;;;;;;;;;;;;;5042302;28;19966;-62
2023/03/27 11:00:31;;;;;;;;;;;;;;;;;;5054662;28;20407;-62
2023/03/27 11:02:57;;;;;;;;;;;;;;;;;;5053085;28;19920;-62
2023/03/27 11:05:23;;;;;;;;;;;;;;;;;;5038619;28;20011;-63
2023/03/27 11:07:49;;;;;;;;;;;;;;;;;;5052343;28;19983;-61
2023/03/27 11:10:16;;;;;;;;;;;;;;;;;;5054712;28;19909;-63
2023/03/27 11:12:42;;;;;;;;;;;;;;;;;;5056354;28;19978;-62
2023/03/27 11:15:08;;;;;;;;;;;;;;;;;;5056446;28;20377;-63
2023/03/27 11:17:34;;;;;;;;;;;;;;;;;;5058226;28;19956;-62
2023/03/27 11:20:06;;;;;;;;;;;;;;;;;;5040377;28;19905;-61
2023/03/27 11:22:32;;;;;;;;;;;;;;;;;;5056049;28;20296;-63
2023/03/27 11:24:57;;;;;;;;;;;;;;;;;;5058405;28;19908;-63
2023/03/27 11:27:26;;;;;;;;;;;;;;;;;;5058088;28;19931;-63
2023/03/27 11:29:52;;;;;;;;;;;;;;;;;;5055845;28;19905;-63
2023/03/27 11:32:19;;;;;;;;;;;;;;;;;;5061119;28;20000;-62
2023/03/27 11:34:45;;;;;;;;;;;;;;;;;;5063087;28;19913;-63
2023/03/27 11:37:11;;;;;;;;;;;;;;;;;;5058956;28;20234;-62
2023/03/27 11:39:37;;;;;;;;;;;;;;;;;;5062669;28;19908;-61
2023/03/27 11:42:04;;;;;;;;;;;;;;;;;;5062890;28;19909;-62
2023/03/27 11:44:29;;;;;;;;;;;;;;;;;;5060640;28;19927;-62
2023/03/27 11:46:55;;;;;;;;;;;;;;;;;;5061419;28;20530;-61
2023/03/27 11:49:21;;;;;;;;;;;;;;;;;;5061047;28;19909;-62
2023/03/27 11:51:47;;;;;;;;;;;;;;;;;;5062314;28;19991;-61
2023/03/27 11:54:13;;;;;;;;;;;;;;;;;;4706660;28;10000170;-64
2023/03/27 11:56:40;;;;;;;;;;;;;;;;;;5038263;28;20362;-65
2023/03/27 11:59:06;;;;;;;;;;;;;;;;;;5057401;28;19905;-66
2023/03/27 12:01:32;;;;;;;;;;;;;;;;;;5059864;28;20364;-64
2023/03/27 12:03:57;;;;;;;;;;;;;;;;;;5073181;22;19931;-64
2023/03/27 12:06:23;;;;;;;;;;;;;;;;;;5059306;28;20015;-63
2023/03/27 12:08:50;;;;;;;;;;;;;;;;;;5063069;28;19932;-65
2023/03/27 12:11:16;;;;;;;;;;;;;;;;;;5047805;28;20300;-65
2023/03/27 12:13:43;;;;;;;;;;;;;;;;;;5059079;28;19908;-64
2023/03/27 12:16:09;;;;;;;;;;;;;;;;;;5058814;28;19916;-64
2023/03/27 12:18:35;;;;;;;;;;;;;;;;;;5055440;28;19982;-62
2023/03/27 12:21:01;;;;;;;;;;;;;;;;;;5060803;28;19950;-63
2023/03/27 12:23:27;;;;;;;;;;;;;;;;;;5057913;28;19916;-59
2023/03/27 12:25:53;;;;;;;;;;;;;;;;;;5056542;28;19908;-63
2023/03/27 12:28:19;;;;;;;;;;;;;;;;;;5058692;28;20324;-64
2023/03/27 12:30:46;;;;;;;;;;;;;;;;;;5051963;28;19963;-64
2023/03/27 12:33:12;;;;;;;;;;;;;;;;;;5052701;28;19970;-64
2023/03/27 12:35:38;;;;;;;;;;;;;;;;;;5052331;28;19905;-64
2023/03/27 12:38:04;;;;;;;;;;;;;;;;;;5052215;28;20000;-64
2023/03/27 12:40:30;;;;;;;;;;;;;;;;;;4706029;28;9999740;-65
2023/03/27 12:42:56;;;;;;;;;;;;;;;;;;5056341;28;19923;-64
2023/03/27 12:45:22;;;;;;;;;;;;;;;;;;5058561;28;20288;-66
2023/03/27 12:47:48;;;;;;;;;;;;;;;;;;5053155;28;20361;-62
2023/03/27 12:50:14;;;;;;;;;;;;;;;;;;5060467;28;19915;-63
2023/03/27 12:52:40;;;;;;;;;;;;;;;;;;5060142;28;19909;-63
2023/03/27 12:55:05;;;;;;;;;;;;;;;;;;5058064;28;20318;-63
2023/03/27 12:57:31;;;;;;;;;;;;;;;;;;5055920;28;19916;-63
2023/03/27 13:00:09;;;;;;;;;;;;;;;;;;5057134;28;20708;-64
2023/03/27 13:02:35;;;;;;;;;;;;;;;;;;5056725;28;19909;-64
2023/03/27 13:05:00;;;;;;;;;;;;;;;;;;5057021;28;19919;-62
2023/03/27 13:07:26;;;;;;;;;;;;;;;;;;5058872;28;20328;-63
2023/03/27 13:09:52;;;;;;;;;;;;;;;;;;5059180;28;20388;-62
2023/03/27 13:12:18;;;;;;;;;;;;;;;;;;5059413;28;19908;-63
2023/03/27 13:14:44;;;;;;;;;;;;;;;;;;5058594;28;19912;-62
2023/03/27 13:17:10;;;;;;;;;;;;;;;;;;5059161;28;19939;-63
2023/03/27 13:19:36;;;;;;;;;;;;;;;;;;5057934;28;19920;-63
2023/03/27 13:22:02;;;;;;;;;;;;;;;;;;5058654;28;20280;-60
2023/03/27 13:24:28;;;;;;;;;;;;;;;;;;5057632;28;19967;-63
2023/03/27 13:26:54;;;;;;;;;;;;;;;;;;5049416;28;20272;-64
2023/03/27 13:29:20;;;;;;;;;;;;;;;;;;5035084;28;19932;-63
2023/03/27 13:31:48;;;;;;;;;;;;;;;;;;5030285;28;19944;-62
2023/03/27 13:34:14;;;;;;;;;;;;;;;;;;5049480;28;20356;-64
2023/03/27 13:36:40;;;;;;;;;;;;;;;;;;5050486;28;19916;-63
2023/03/27 13:39:07;;;;;;;;;;;;;;;;;;5050248;28;20305;-57
2023/03/27 13:41:33;;;;;;;;;;;;;;;;;;5049795;28;19905;-62
2023/03/27 13:43:58;;;;;;;;;;;;;;;;;;5047189;28;19972;-61
2023/03/27 13:46:27;;;;;;;;;;;;;;;;;;5047871;28;19905;-63
2023/03/27 13:48:53;;;;;;;;;;;;;;;;;;5049303;28;19964;-64
2023/03/27 13:51:19;;;;;;;;;;;;;;;;;;5049849;28;19995;-61
2023/03/27 13:53:45;;;;;;;;;;;;;;;;;;5046717;28;19931;-62
2023/03/27 13:56:11;;;;;;;;;;;;;;;;;;5043441;28;19905;-64
2023/03/27 13:58:37;;;;;;;;;;;;;;;;;;5049418;28;20439;-64
2023/03/27 14:01:06;;;;;;;;;;;;;;;;;;5049295;28;20340;-61
2023/03/27 14:03:32;;;;;;;;;;;;;;;;;;5047285;28;20380;-63
2023/03/27 14:05:58;;;;;;;;;;;;;;;;;;5049329;28;19917;-64
2023/03/27 14:08:24;;;;;;;;;;;;;;;;;;5051860;28;19912;-64
2023/03/27 14:10:50;;;;;;;;;;;;;;;;;;5052588;28;19987;-63
2023/03/27 14:13:16;;;;;;;;;;;;;;;;;;5051384;28;19909;-63
2023/03/27 14:15:42;;;;;;;;;;;;;;;;;;5050803;28;20000;-64
2023/03/27 14:18:07;;;;;;;;;;;;;;;;;;5052142;28;19954;-63
2023/03/27 14:20:33;;;;;;;;;;;;;;;;;;5059817;28;20020;-63
2023/03/27 14:22:59;;;;;;;;;;;;;;;;;;5054809;28;20281;-62
2023/03/27 14:25:25;;;;;;;;;;;;;;;;;;5045949;28;19916;-61
2023/03/27 14:27:52;;;;;;;;;;;;;;;;;;5055674;28;19913;-60
2023/03/27 14:30:19;;;;;;;;;;;;;;;;;;5066623;28;20322;-64
2023/03/27 14:32:45;;;;;;;;;;;;;;;;;;5053801;28;19905;-63
2023/03/27 14:35:11;;;;;;;;;;;;;;;;;;5060014;28;19995;-62
2023/03/27 14:37:38;;;;;;;;;;;;;;;;;;5063593;28;19944;-66
2023/03/27 14:40:06;;;;;;;;;;;;;;;;;;5043046;28;19919;-62
2023/03/27 14:42:31;;;;;;;;;;;;;;;;;;5043366;28;19975;-62
2023/03/27 14:44:57;;;;;;;;;;;;;;;;;;5062989;28;20371;-62
2023/03/27 14:47:23;;;;;;;;;;;;;;;;;;5048807;28;19988;-65
2023/03/27 14:49:49;;;;;;;;;;;;;;;;;;5048475;28;19910;-64
2023/03/27 14:52:16;;;;;;;;;;;;;;;;;;5046908;28;19959;-62
2023/03/27 14:54:42;;;;;;;;;;;;;;;;;;5049096;28;19915;-64
2023/03/27 14:57:09;;;;;;;;;;;;;;;;;;5047237;28;20566;-65
2023/03/27 14:59:35;;;;;;;;;;;;;;;;;;5048915;28;19904;-63
2023/03/27 15:02:01;;;;;;;;;;;;;;;;;;5048230;28;20006;-63
2023/03/27 15:04:28;;;;;;;;;;;;;;;;;;5047805;28;20399;-61
2023/03/27 15:06:55;;;;;;;;;;;;;;;;;;5034252;28;19991;-64
2023/03/27 15:09:24;;;;;;;;;;;;;;;;;;5032017;28;19908;-64
2023/03/27 15:11:50;;;;;;;;;;;;;;;;;;5032666;28;19945;-64
2023/03/27 15:14:17;;;;;;;;;;;;;;;;;;5031029;28;20081;-63
2023/03/27 15:16:43;;;;;;;;;;;;;;;;;;5032232;28;19909;-64
2023/03/27 15:19:11;;;;;;;;;;;;;;;;;;5039048;28;19913;-63
2023/03/27 15:21:45;;;;;;;;;;;;;;;;;;5051242;28;19967;-64
2023/03/27 15:24:12;;;;;;;;;;;;;;;;;;5050024;28;20309;-65
2023/03/27 15:26:38;;;;;;;;;;;;;;;;;;5050748;28;19962;-60
2023/03/27 15:29:06;;;;;;;;;;;;;;;;;;5052802;28;20323;-64
2023/03/27 15:31:32;;;;;;;;;;;;;;;;;;5050714;28;19909;-64
2023/03/27 15:34:02;;;;;;;;;;;;;;;;;;5050604;28;19911;-62
2023/03/27 15:36:27;;;;;;;;;;;;;;;;;;5049163;28;19936;-64
2023/03/27 15:38:54;;;;;;;;;;;;;;;;;;5049031;28;19908;-65
2023/03/27 15:41:20;;;;;;;;;;;;;;;;;;5051743;28;20007;-64
2023/03/27 15:43:46;;;;;;;;;;;;;;;;;;5050713;28;20008;-59
2023/03/27 15:46:12;;;;;;;;;;;;;;;;;;5047424;28;19909;-62
2023/03/27 15:48:39;;;;;;;;;;;;;;;;;;5051739;28;19959;-61
2023/03/27 15:51:05;;;;;;;;;;;;;;;;;;5051454;28;19974;-64
2023/03/27 15:53:31;;;;;;;;;;;;;;;;;;5051165;28;20357;-63
2023/03/27 15:55:57;;;;;;;;;;;;;;;;;;5037972;28;19999;-63
2023/03/27 15:58:23;;;;;;;;;;;;;;;;;;5050799;28;19950;-62
2023/03/27 16:00:49;;;;;;;;;;;;;;;;;;5051805;28;19935;-63
2023/03/27 16:03:15;;;;;;;;;;;;;;;;;;5049264;28;19914;-62
2023/03/27 16:05:41;;;;;;;;;;;;;;;;;;5051166;28;19940;-61
2023/03/27 16:08:08;;;;;;;;;;;;;;;;;;5050058;28;19905;-62
2023/03/27 16:10:34;;;;;;;;;;;;;;;;;;5051256;28;19974;-62
2023/03/27 16:13:01;;;;;;;;;;;;;;;;;;5051793;28;19905;-62
2023/03/27 16:15:27;;;;;;;;;;;;;;;;;;5058167;28;20106;-62
2023/03/27 16:17:53;;;;;;;;;;;;;;;;;;5050435;28;19920;-62
2023/03/27 16:20:19;;;;;;;;;;;;;;;;;;5050915;28;19909;-61
2023/03/27 16:22:45;;;;;;;;;;;;;;;;;;5050222;28;19912;-62
2023/03/27 16:25:11;;;;;;;;;;;;;;;;;;5050600;28;19942;-59
2023/03/27 16:27:37;;;;;;;;;;;;;;;;;;5049963;28;20384;-62
2023/03/27 16:30:03;;;;;;;;;;;;;;;;;;5059060;28;19916;-61
2023/03/27 16:32:29;;;;;;;;;;;;;;;;;;5059438;28;19909;-62
2023/03/27 16:34:55;;;;;;;;;;;;;;;;;;5062394;28;19922;-64
2023/03/27 16:37:21;;;;;;;;;;;;;;;;;;5058986;28;19911;-61
2023/03/27 16:39:47;;;;;;;;;;;;;;;;;;5059628;28;19908;-65